Time;durP1;ratioP1;P1;durP2;ratioP2;P2;SDS_P1;SDS_P2;PMS_P1;PMS_P2;Temp;Humidity;BMP_temperature;BMP_pressure;BME280_temperature;BME280_humidity;BME280_pressure;Samples;Min_cycle;Max_cycle;Signal;HPM_P1;HPM_P2
2024/03/26 00:00:11;;;;;;;6.32;4.75;;;;;;;0.55;73.50;93048.63;519865;28;792;-75
2024/03/26 00:00:27;;;;;;;7.63;5.05;;;;;;;0.56;73.23;93039.25;519806;28;926;-75
2024/03/26 00:00:42;;;;;;;6.73;5.23;;;;;;;0.57;73.71;93043.41;519894;28;827;-75
2024/03/26 00:00:58;;;;;;;7.82;5.50;;;;;;;0.57;73.17;93046.13;519809;28;848;-75
2024/03/26 00:01:13;;;;;;;9.87;6.13;;;;;;;0.39;73.25;93017.50;519896;28;816;-75
2024/03/26 00:01:29;;;;;;;10.70;6.47;;;;;;;0.57;73.20;93038.75;519895;28;847;-75
2024/03/26 00:01:44;;;;;;;11.73;6.90;;;;;;;0.57;73.04;93044.16;519852;28;840;-75
2024/03/26 00:02:02;;;;;;;10.03;6.47;;;;;;;0.52;72.64;93030.59;519780;28;833;-75
2024/03/26 00:02:18;;;;;;;9.70;7.03;;;;;;;0.56;72.94;93042.69;519866;28;891;-75
2024/03/26 00:02:34;;;;;;;9.93;7.85;;;;;;;0.56;73.28;93041.97;519869;28;819;-75
2024/03/26 00:02:49;;;;;;;10.90;8.10;;;;;;;0.54;72.69;93036.28;519845;28;776;-75
2024/03/26 00:03:05;;;;;;;11.95;8.38;;;;;;;0.54;72.81;93036.28;519811;28;858;-75
2024/03/26 00:03:20;;;;;;;15.50;9.47;;;;;;;0.54;73.04;93039.72;519883;28;1518;-75
2024/03/26 00:03:36;;;;;;;15.63;10.45;;;;;;;0.53;72.65;93042.94;519797;28;821;-75
2024/03/26 00:03:51;;;;;;;17.30;10.93;;;;;;;0.53;72.64;93043.69;519744;28;1997;-75
2024/03/26 00:04:06;;;;;;;21.97;11.93;;;;;;;0.54;72.68;93041.72;519840;28;876;-75
2024/03/26 00:04:22;;;;;;;23.75;12.63;;;;;;;0.54;72.74;93045.16;519882;28;793;-74
2024/03/26 00:04:37;;;;;;;25.67;12.70;;;;;;;0.56;72.77;93044.66;519835;28;848;-75
2024/03/26 00:04:53;;;;;;;26.60;13.77;;;;;;;0.58;72.85;93044.91;519820;28;776;-74
2024/03/26 00:05:08;;;;;;;28.23;15.10;;;;;;;0.59;72.42;93046.38;519765;28;891;-75
2024/03/26 00:05:24;;;;;;;30.95;15.40;;;;;;;0.57;72.52;93044.16;519838;28;872;-74
2024/03/26 00:05:39;;;;;;;33.63;15.23;;;;;;;0.56;72.24;93048.09;519871;28;784;-74
2024/03/26 00:05:56;;;;;;;30.80;14.13;;;;;;;0.56;72.28;93039.25;519741;28;781;-74
2024/03/26 00:06:11;;;;;;;27.80;13.85;;;;;;;0.55;72.86;93048.63;519916;28;823;-74
2024/03/26 00:06:27;;;;;;;27.40;14.07;;;;;;;0.52;72.64;93049.63;519753;28;864;-74
2024/03/26 00:06:42;;;;;;;26.23;13.47;;;;;;;0.47;72.63;93042.94;519849;28;855;-75
2024/03/26 00:06:58;;;;;;;23.98;12.05;;;;;;;0.44;72.65;93043.16;519843;28;792;-75
2024/03/26 00:07:13;;;;;;;23.77;10.87;;;;;;;0.20;72.91;93010.31;519782;28;785;-75
2024/03/26 00:07:28;;;;;;;25.80;11.55;;;;;;;0.38;73.18;93045.91;519861;28;793;-74
2024/03/26 00:07:44;;;;;;;23.80;12.27;;;;;;;0.38;73.04;93043.19;519734;28;868;-75
2024/03/26 00:07:59;;;;;;;25.13;12.30;;;;;;;0.40;73.22;93048.13;519777;28;839;-74
2024/03/26 00:08:15;;;;;;;26.27;12.73;;;;;;;0.42;73.08;93045.66;519874;28;819;-75
2024/03/26 00:08:30;;;;;;;21.30;11.83;;;;;;;0.45;73.22;93044.66;519866;28;1048;-74
2024/03/26 00:08:45;;;;;;;17.75;11.32;;;;;;;0.47;73.00;93050.34;519748;28;773;-75
2024/03/26 00:09:01;;;;;;;16.50;10.83;;;;;;;0.50;73.00;93046.63;519878;28;843;-74
2024/03/26 00:09:16;;;;;;;17.40;10.57;;;;;;;0.52;72.88;93049.63;519751;28;859;-75
2024/03/26 00:09:32;;;;;;;17.17;10.27;;;;;;;0.54;72.69;93047.88;519876;28;907;-74
2024/03/26 00:09:47;;;;;;;15.07;10.10;;;;;;;0.56;72.91;93039.25;519833;28;913;-74
2024/03/26 00:10:04;;;;;;;12.83;9.93;;;;;;;0.59;72.80;93043.66;519837;28;935;-74
2024/03/26 00:10:19;;;;;;;17.90;10.93;;;;;;;0.59;72.27;93044.41;519809;28;815;-75
2024/03/26 00:10:34;;;;;;;21.00;11.90;;;;;;;0.62;71.78;93053.56;519732;28;1019;-74
2024/03/26 00:10:51;;;;;;;19.60;11.63;;;;;;;0.63;72.04;93042.19;519814;28;772;-74
2024/03/26 00:11:07;;;;;;;17.75;11.00;;;;;;;0.65;71.83;93052.56;519839;28;1099;-74
2024/03/26 00:11:24;;;;;;;16.33;10.47;;;;;;;0.67;71.91;93052.81;519814;28;907;-75
2024/03/26 00:11:39;;;;;;;17.98;10.68;;;;;;;0.69;71.49;93051.06;519836;28;882;-74
2024/03/26 00:11:55;;;;;;;16.40;10.32;;;;;;;0.70;71.44;93051.81;519702;28;856;-74
2024/03/26 00:12:11;;;;;;;13.68;9.45;;;;;;;0.71;71.64;93045.16;519890;28;818;-75
2024/03/26 00:12:26;;;;;;;14.33;9.60;;;;;;;0.71;71.64;93045.88;519795;28;892;-75
2024/03/26 00:12:43;;;;;;;14.80;9.50;;;;;;;0.73;71.56;93048.13;519890;28;840;-75
2024/03/26 00:12:58;;;;;;;14.35;9.93;;;;;;;0.75;71.50;93053.81;519887;28;852;-74
2024/03/26 00:13:14;;;;;;;15.00;10.45;;;;;;;0.74;71.74;93044.91;519807;28;868;-75
2024/03/26 00:13:29;;;;;;;14.80;9.70;;;;;;;0.76;71.51;93050.56;519796;28;843;-75
2024/03/26 00:13:44;;;;;;;15.02;9.68;;;;;;;0.77;71.40;93054.78;519778;28;911;-75
2024/03/26 00:14:00;;;;;;;15.77;10.40;;;;;;;0.77;71.34;93051.31;519816;28;855;-74
2024/03/26 00:14:15;;;;;;;15.90;10.13;;;;;;;0.78;71.32;93058.22;519757;28;859;-75
2024/03/26 00:14:31;;;;;;;14.63;9.97;;;;;;;0.75;71.27;93051.09;519847;28;852;-74
2024/03/26 00:14:47;;;;;;;13.68;9.27;;;;;;;0.61;71.31;93030.34;519677;28;821;-75
2024/03/26 00:15:02;;;;;;;11.68;8.30;;;;;;;0.81;71.16;93059.97;519860;28;875;-74
2024/03/26 00:15:18;;;;;;;13.23;9.43;;;;;;;0.81;71.28;93057.25;519870;28;769;-74
2024/03/26 00:15:33;;;;;;;15.65;9.90;;;;;;;0.59;71.19;93025.41;519741;28;851;-74
2024/03/26 00:15:49;;;;;;;13.77;9.60;;;;;;;0.71;71.77;93056.03;519819;28;907;-75
2024/03/26 00:16:04;;;;;;;13.80;9.50;;;;;;;0.68;71.44;93059.72;519814;28;768;-74
2024/03/26 00:16:20;;;;;;;14.77;9.50;;;;;;;0.64;71.53;93053.81;519830;28;780;-75
2024/03/26 00:16:35;;;;;;;13.32;9.52;;;;;;;0.59;71.79;93052.56;519841;28;906;-75
2024/03/26 00:16:51;;;;;;;12.83;9.50;;;;;;;0.55;71.87;93059.47;519822;28;1011;-75
2024/03/26 00:17:06;;;;;;;15.35;9.35;;;;;;;0.53;72.18;93051.81;519814;28;772;-74
2024/03/26 00:17:22;;;;;;;17.07;9.17;;;;;;;0.55;72.19;93056.75;519879;28;883;-75
2024/03/26 00:17:37;;;;;;;14.18;8.70;;;;;;;0.57;71.99;93054.28;519729;28;801;-74
2024/03/26 00:17:53;;;;;;;11.03;8.50;;;;;;;0.58;72.22;93053.06;519794;28;895;-75
2024/03/26 00:18:08;;;;;;;11.00;8.77;;;;;;;0.60;72.19;93050.59;519852;28;839;-75
2024/03/26 00:18:23;;;;;;;11.48;8.80;;;;;;;0.62;72.01;93056.28;519830;28;812;-74
2024/03/26 00:18:39;;;;;;;10.90;8.33;;;;;;;0.64;71.88;93061.94;519793;28;827;-74
2024/03/26 00:18:54;;;;;;;11.43;7.85;;;;;;;0.63;71.83;93049.59;519764;28;820;-75
2024/03/26 00:19:10;;;;;;;11.83;8.13;;;;;;;0.62;72.00;93056.28;519853;28;839;-74
2024/03/26 00:19:25;;;;;;;10.57;8.05;;;;;;;0.61;72.03;93058.25;519780;28;812;-75
2024/03/26 00:19:41;;;;;;;10.40;7.97;;;;;;;0.56;72.01;93052.81;519851;28;859;-74
2024/03/26 00:19:56;;;;;;;10.82;8.50;;;;;;;0.61;71.94;93057.50;519761;28;876;-74
2024/03/26 00:20:12;;;;;;;11.07;8.80;;;;;;;0.62;71.94;93053.56;519798;28;803;-74
2024/03/26 00:20:27;;;;;;;10.47;8.77;;;;;;;0.60;71.91;93054.06;519707;28;891;-74
2024/03/26 00:20:43;;;;;;;10.95;8.65;;;;;;;0.60;71.86;93056.03;519742;28;780;-75
2024/03/26 00:20:58;;;;;;;10.63;8.27;;;;;;;0.60;72.04;93059.50;519840;28;930;-74
2024/03/26 00:21:14;;;;;;;11.03;8.10;;;;;;;0.62;71.68;93056.28;519810;28;856;-75
2024/03/26 00:21:29;;;;;;;12.82;8.43;;;;;;;0.63;72.14;93057.75;519781;28;1054;-74
2024/03/26 00:21:44;;;;;;;12.47;8.77;;;;;;;0.62;71.94;93056.28;519671;28;1061;-74
2024/03/26 00:22:00;;;;;;;11.93;8.97;;;;;;;0.57;71.87;93051.56;519838;28;1064;-74
2024/03/26 00:22:15;;;;;;;11.57;8.82;;;;;;;0.55;71.95;93056.75;519838;28;804;-74
2024/03/26 00:22:31;;;;;;;10.80;8.87;;;;;;;0.50;71.81;93054.78;519873;28;781;-74
2024/03/26 00:22:46;;;;;;;10.38;8.02;;;;;;;0.35;71.95;93040.69;519681;28;823;-75
2024/03/26 00:23:02;;;;;;;9.37;7.30;;;;;;;0.43;72.07;93061.47;519736;28;819;-75
2024/03/26 00:23:17;;;;;;;9.50;7.28;;;;;;;0.39;72.09;93058.22;519805;28;883;-74
2024/03/26 00:23:32;;;;;;;9.17;6.60;;;;;;;0.36;72.48;93055.75;519858;28;815;-74
2024/03/26 00:23:49;;;;;;;8.67;6.10;;;;;;;0.33;72.21;93048.59;519733;28;1977;-74
2024/03/26 00:24:04;;;;;;;10.10;6.03;;;;;;;0.29;72.21;93056.25;519845;28;840;-74
2024/03/26 00:24:20;;;;;;;9.67;5.80;;;;;;;0.25;72.12;93056.50;519849;28;887;-75
2024/03/26 00:24:35;;;;;;;7.68;6.03;;;;;;;0.21;72.07;93055.25;519802;28;796;-74
2024/03/26 00:24:51;;;;;;;8.00;6.17;;;;;;;0.18;72.04;93056.22;519749;28;1076;-75
2024/03/26 00:25:06;;;;;;;7.80;6.00;;;;;;;0.14;72.04;93058.44;519787;28;883;-75
2024/03/26 00:25:22;;;;;;;8.30;6.25;;;;;;;0.08;72.19;93055.00;519865;28;729;-74
2024/03/26 00:25:37;;;;;;;8.67;6.27;;;;;;;-0.05;72.37;93044.59;519688;28;883;-74
2024/03/26 00:25:53;;;;;;;7.87;6.27;;;;;;;0.04;72.36;93057.19;519691;28;1094;-74
2024/03/26 00:26:09;;;;;;;9.98;6.65;;;;;;;0.00;72.48;93063.59;519885;28;854;-74
2024/03/26 00:26:24;;;;;;;11.00;7.25;;;;;;;-0.01;72.38;93054.00;519792;28;918;-74
2024/03/26 00:26:40;;;;;;;10.03;7.27;;;;;;;-0.02;72.33;93055.22;519786;28;784;-74
2024/03/26 00:26:55;;;;;;;9.73;7.05;;;;;;;-0.02;72.38;93060.63;519682;28;840;-74
2024/03/26 00:27:11;;;;;;;9.33;6.90;;;;;;;-0.01;72.52;93061.38;519772;28;772;-75
2024/03/26 00:27:26;;;;;;;10.32;6.90;;;;;;;-0.01;72.66;93051.28;519712;28;882;-74
2024/03/26 00:27:42;;;;;;;10.47;7.07;;;;;;;0.00;72.48;93060.88;519733;28;843;-74
2024/03/26 00:27:57;;;;;;;9.30;6.70;;;;;;;0.04;72.51;93062.63;519731;28;1002;-74
2024/03/26 00:28:13;;;;;;;8.77;6.33;;;;;;;0.04;72.34;93060.66;519784;28;765;-74
2024/03/26 00:28:28;;;;;;;9.25;6.63;;;;;;;0.06;72.32;93063.63;519805;28;851;-74
2024/03/26 00:28:43;;;;;;;8.77;6.73;;;;;;;0.09;72.43;93061.91;519703;28;832;-74
2024/03/26 00:28:59;;;;;;;7.80;6.55;;;;;;;0.10;72.33;93058.69;519783;28;781;-74
2024/03/26 00:29:14;;;;;;;8.33;6.53;;;;;;;0.11;72.16;93064.88;519851;28;903;-74
2024/03/26 00:29:30;;;;;;;9.93;7.13;;;;;;;0.10;72.27;93061.41;519851;28;769;-74
2024/03/26 00:29:45;;;;;;;9.63;7.00;;;;;;;0.11;72.29;93059.44;519724;28;844;-75
2024/03/26 00:30:01;;;;;;;7.63;6.22;;;;;;;0.12;72.41;93069.06;519760;28;788;-74
2024/03/26 00:30:16;;;;;;;7.67;6.07;;;;;;;0.09;72.57;93067.34;519689;28;831;-74
2024/03/26 00:30:32;;;;;;;7.73;6.30;;;;;;;0.05;72.81;93066.81;519815;28;844;-75
2024/03/26 00:30:48;;;;;;;7.18;6.15;;;;;;;0.01;72.49;93067.06;519672;28;807;-74
2024/03/26 00:31:03;;;;;;;8.32;5.93;;;;;;;-0.01;72.56;93067.56;519823;28;856;-74
2024/03/26 00:31:18;;;;;;;8.80;6.23;;;;;;;0.00;72.84;93069.03;519714;28;907;-74
2024/03/26 00:31:34;;;;;;;8.70;6.60;;;;;;;0.02;72.88;93065.09;519760;28;825;-74
2024/03/26 00:31:49;;;;;;;9.20;6.50;;;;;;;0.04;72.61;93063.38;519724;28;832;-75
2024/03/26 00:32:05;;;;;;;9.20;6.50;;;;;;;0.08;72.79;93065.84;519751;28;764;-74
2024/03/26 00:32:20;;;;;;;8.97;6.33;;;;;;;0.09;72.95;93065.34;519890;28;771;-74
2024/03/26 00:32:35;;;;;;;8.80;6.03;;;;;;;0.11;72.91;93067.59;519773;28;922;-74
2024/03/26 00:32:51;;;;;;;7.60;5.75;;;;;;;0.13;73.06;93068.56;519685;28;788;-75
2024/03/26 00:33:06;;;;;;;8.20;6.20;;;;;;;0.16;72.98;93067.59;519718;28;809;-74
2024/03/26 00:33:22;;;;;;;8.88;6.30;;;;;;;0.19;72.75;93068.59;519822;28;863;-74
2024/03/26 00:33:37;;;;;;;7.80;6.03;;;;;;;0.21;72.43;93071.53;519699;28;868;-75
2024/03/26 00:33:53;;;;;;;9.07;6.50;;;;;;;0.22;72.42;93067.59;519778;28;1064;-74
2024/03/26 00:34:08;;;;;;;9.53;6.63;;;;;;;0.24;72.23;93065.16;519654;28;776;-74
2024/03/26 00:34:23;;;;;;;8.93;5.93;;;;;;;0.26;72.19;93066.09;519811;28;843;-74
2024/03/26 00:34:40;;;;;;;8.88;5.60;;;;;;;0.27;72.31;93062.19;519810;28;859;-74
2024/03/26 00:34:55;;;;;;;8.43;5.93;;;;;;;0.29;71.72;93067.09;519770;28;840;-74
2024/03/26 00:35:11;;;;;;;7.57;5.75;;;;;;;0.30;71.61;93068.59;519777;28;820;-74
2024/03/26 00:35:26;;;;;;;7.13;5.33;;;;;;;0.31;71.50;93064.63;519723;28;817;-74
2024/03/26 00:35:42;;;;;;;6.22;5.03;;;;;;;0.25;71.26;93059.22;519744;28;784;-74
2024/03/26 00:35:57;;;;;;;6.27;4.97;;;;;;;0.32;71.16;93064.16;519795;28;816;-74
2024/03/26 00:36:12;;;;;;;6.93;5.30;;;;;;;0.33;71.24;93068.34;519759;28;866;-74
2024/03/26 00:36:28;;;;;;;7.03;5.43;;;;;;;0.33;71.07;93073.78;519632;28;841;-75
2024/03/26 00:36:43;;;;;;;7.20;5.60;;;;;;;0.35;71.05;93070.56;519653;28;851;-74
2024/03/26 00:36:59;;;;;;;7.97;6.05;;;;;;;0.35;71.10;93071.31;519602;28;1095;-74
2024/03/26 00:37:14;;;;;;;9.00;6.27;;;;;;;0.35;71.05;93065.88;519615;28;777;-74
2024/03/26 00:37:30;;;;;;;8.48;6.30;;;;;;;0.37;71.13;93070.84;519627;28;1006;-74
2024/03/26 00:37:45;;;;;;;9.03;6.07;;;;;;;0.37;71.07;93070.84;519555;28;852;-74
2024/03/26 00:38:00;;;;;;;9.07;5.93;;;;;;;0.36;70.96;93074.78;519657;28;1052;-74
2024/03/26 00:38:16;;;;;;;8.40;5.93;;;;;;;0.33;70.94;93073.78;519376;28;931;-74
2024/03/26 00:38:31;;;;;;;9.63;6.00;;;;;;;0.27;71.02;93070.31;519684;28;772;-74
2024/03/26 00:38:47;;;;;;;9.30;6.00;;;;;;;0.23;71.05;93069.06;519733;28;887;-75
2024/03/26 00:39:02;;;;;;;8.40;6.17;;;;;;;0.15;71.19;93073.50;519833;28;807;-74
2024/03/26 00:39:18;;;;;;;7.78;6.50;;;;;;;-0.09;71.23;93036.69;519824;28;811;-74
2024/03/26 00:39:33;;;;;;;7.17;5.83;;;;;;;0.10;71.16;93069.56;519816;28;835;-74
2024/03/26 00:39:49;;;;;;;6.93;5.47;;;;;;;0.09;71.16;93070.06;519696;28;828;-74
2024/03/26 00:40:05;;;;;;;6.70;5.47;;;;;;;0.04;71.28;93068.06;519756;28;990;-74
2024/03/26 00:40:20;;;;;;;7.28;5.50;;;;;;;0.00;71.43;93071.03;519851;28;841;-75
2024/03/26 00:40:36;;;;;;;6.97;5.83;;;;;;;-0.03;71.30;93064.59;519708;28;1030;-75
2024/03/26 00:40:51;;;;;;;6.43;5.25;;;;;;;-0.05;71.34;93063.59;519680;28;843;-74
2024/03/26 00:41:07;;;;;;;7.10;4.60;;;;;;;-0.09;71.46;93065.81;519576;28;1462;-75
2024/03/26 00:41:23;;;;;;;6.32;4.60;;;;;;;-0.21;71.70;93056.91;519819;28;824;-75
2024/03/26 00:41:38;;;;;;;6.10;4.87;;;;;;;-0.17;71.56;93067.50;519763;28;832;-74
2024/03/26 00:41:53;;;;;;;5.80;4.68;;;;;;;-0.19;71.69;93062.56;519730;28;769;-74
2024/03/26 00:42:09;;;;;;;4.97;4.27;;;;;;;-0.19;71.93;93068.00;519736;28;890;-75
2024/03/26 00:42:24;;;;;;;4.97;4.25;;;;;;;-0.20;71.84;93069.25;519714;28;808;-75
2024/03/26 00:42:40;;;;;;;6.20;4.47;;;;;;;-0.20;71.95;93065.78;519702;28;895;-74
2024/03/26 00:42:55;;;;;;;6.57;4.93;;;;;;;-0.19;72.21;93069.97;519703;28;796;-74
2024/03/26 00:43:11;;;;;;;7.00;5.35;;;;;;;-0.20;72.05;93073.91;519843;28;793;-74
2024/03/26 00:43:26;;;;;;;6.37;5.10;;;;;;;-0.21;72.04;93065.03;519688;28;907;-75
2024/03/26 00:43:42;;;;;;;6.00;5.18;;;;;;;-0.23;72.19;93064.78;519778;28;965;-74
2024/03/26 00:43:57;;;;;;;6.73;5.80;;;;;;;-0.22;72.07;93068.25;519657;28;1907;-75
2024/03/26 00:44:13;;;;;;;6.50;5.73;;;;;;;-0.21;72.23;93067.75;519756;28;1099;-75
2024/03/26 00:44:28;;;;;;;5.83;5.23;;;;;;;-0.21;72.29;93067.75;519809;28;792;-75
2024/03/26 00:44:43;;;;;;;5.97;5.20;;;;;;;-0.21;72.34;93070.47;520997;28;1112;-75
2024/03/26 00:44:59;;;;;;;7.00;5.60;;;;;;;-0.23;72.14;93070.22;521822;28;838;-74
2024/03/26 00:45:15;;;;;;;7.22;5.65;;;;;;;-0.29;72.39;93060.56;521776;28;832;-75
2024/03/26 00:45:30;;;;;;;9.03;5.80;;;;;;;-0.33;72.37;93068.94;521828;28;801;-74
2024/03/26 00:45:45;;;;;;;10.13;6.35;;;;;;;-0.39;72.50;93070.16;521790;28;792;-74
2024/03/26 00:46:01;;;;;;;8.00;6.37;;;;;;;-0.42;72.93;93065.69;521741;28;764;-74
2024/03/26 00:46:16;;;;;;;7.32;5.60;;;;;;;-0.49;73.00;93063.44;521802;28;776;-75
2024/03/26 00:46:32;;;;;;;8.60;5.83;;;;;;;-0.55;73.39;93066.13;521893;28;745;-74
2024/03/26 00:46:47;;;;;;;10.03;6.40;;;;;;;-0.57;73.24;93070.56;521704;28;832;-74
2024/03/26 00:47:02;;;;;;;9.82;6.60;;;;;;;-0.61;73.44;93068.09;521775;28;863;-74
2024/03/26 00:47:18;;;;;;;8.83;6.37;;;;;;;-0.66;73.57;93065.34;521857;28;780;-75
2024/03/26 00:47:33;;;;;;;9.10;5.90;;;;;;;-0.68;73.86;93065.84;521829;28;848;-75
2024/03/26 00:47:49;;;;;;;9.23;5.60;;;;;;;-0.66;74.04;93062.63;521810;28;785;-74
2024/03/26 00:48:05;;;;;;;8.88;5.32;;;;;;;-0.68;74.06;93071.25;519866;28;1227;-74
2024/03/26 00:48:20;;;;;;;7.85;4.90;;;;;;;-0.69;74.09;93064.34;519777;28;899;-75
2024/03/26 00:48:36;;;;;;;8.30;4.93;;;;;;;-0.70;74.33;93068.28;519793;28;836;-74
2024/03/26 00:48:51;;;;;;;7.82;5.07;;;;;;;-0.83;74.64;93049.75;519819;28;745;-75
2024/03/26 00:49:06;;;;;;;7.47;5.20;;;;;;;-0.72;74.70;93061.88;519723;28;777;-75
2024/03/26 00:49:22;;;;;;;7.87;5.10;;;;;;;-0.73;74.38;93066.53;519725;28;760;-75
2024/03/26 00:49:37;;;;;;;6.82;4.72;;;;;;;-0.72;74.52;93056.44;519812;28;765;-74
2024/03/26 00:49:53;;;;;;;7.10;4.80;;;;;;;-0.69;74.50;93067.06;519740;28;749;-74
2024/03/26 00:50:09;;;;;;;6.10;4.43;;;;;;;-0.66;74.78;93066.09;519767;28;780;-75
2024/03/26 00:50:24;;;;;;;6.75;4.80;;;;;;;-0.65;74.53;93064.84;519770;28;765;-74
2024/03/26 00:50:39;;;;;;;6.97;4.60;;;;;;;-0.61;74.60;93065.38;519679;28;787;-74
2024/03/26 00:50:55;;;;;;;6.03;4.40;;;;;;;-0.58;74.55;93064.41;519686;28;839;-74
2024/03/26 00:51:11;;;;;;;7.80;4.78;;;;;;;-0.58;74.35;93069.81;519748;28;820;-74
2024/03/26 00:51:27;;;;;;;7.03;4.53;;;;;;;-0.53;74.40;93060.97;519720;28;949;-74
2024/03/26 00:51:44;;;;;;;6.05;4.47;;;;;;;-0.49;74.34;93066.91;519762;28;757;-74
2024/03/26 00:51:59;;;;;;;5.95;4.50;;;;;;;-0.44;74.39;93068.16;519720;28;900;-74
2024/03/26 00:52:15;;;;;;;6.90;4.63;;;;;;;-0.41;74.04;93065.19;519703;28;804;-74
2024/03/26 00:52:30;;;;;;;8.30;5.22;;;;;;;-0.40;74.26;93063.97;519834;28;832;-74
2024/03/26 00:52:46;;;;;;;7.57;5.67;;;;;;;-0.36;74.13;93063.75;519698;28;749;-74
2024/03/26 00:53:01;;;;;;;8.10;5.75;;;;;;;-0.34;73.98;93062.03;519731;28;843;-74
2024/03/26 00:53:16;;;;;;;7.80;5.70;;;;;;;-0.31;73.95;93061.06;519688;28;914;-74
2024/03/26 00:53:32;;;;;;;7.97;5.63;;;;;;;-0.32;73.96;93056.09;519734;28;834;-74
2024/03/26 00:53:47;;;;;;;9.37;6.13;;;;;;;-0.26;73.70;93059.59;519697;28;785;-75
2024/03/26 00:54:03;;;;;;;9.52;6.82;;;;;;;-0.23;73.61;93064.03;519703;28;974;-74
2024/03/26 00:54:18;;;;;;;10.33;7.20;;;;;;;-0.21;73.99;93056.16;519780;28;761;-74
2024/03/26 00:54:34;;;;;;;10.80;6.93;;;;;;;-0.19;73.56;93062.56;519758;28;1100;-74
2024/03/26 00:54:49;;;;;;;9.10;6.18;;;;;;;-0.16;73.38;93061.59;519708;28;875;-74
2024/03/26 00:55:05;;;;;;;7.37;5.80;;;;;;;-0.14;73.23;93061.84;519700;28;757;-74
2024/03/26 00:55:20;;;;;;;7.25;5.80;;;;;;;-0.12;73.27;93064.06;519848;28;788;-74
2024/03/26 00:55:35;;;;;;;7.20;5.70;;;;;;;-0.10;73.15;93062.34;519760;28;879;-74
2024/03/26 00:55:51;;;;;;;8.02;5.72;;;;;;;-0.08;72.97;93064.56;519719;28;839;-74
2024/03/26 00:56:06;;;;;;;9.60;5.80;;;;;;;-0.05;72.87;93066.31;519644;28;992;-74
2024/03/26 00:56:22;;;;;;;9.63;5.53;;;;;;;-0.04;72.73;93062.34;519745;28;772;-74
2024/03/26 00:56:37;;;;;;;8.23;5.43;;;;;;;-0.02;72.58;93066.06;519685;28;891;-74
2024/03/26 00:56:53;;;;;;;7.63;5.67;;;;;;;-0.01;72.38;93064.84;520423;28;1073;-74
2024/03/26 00:57:08;;;;;;;7.88;5.78;;;;;;;0.00;72.36;93062.88;521734;28;856;-75
2024/03/26 00:57:23;;;;;;;7.07;5.00;;;;;;;0.03;72.45;93070.03;521764;28;799;-75
2024/03/26 00:57:39;;;;;;;7.28;5.20;;;;;;;0.02;72.06;93065.09;521684;28;856;-74
2024/03/26 00:57:54;;;;;;;9.80;6.63;;;;;;;0.04;72.28;93066.09;521837;28;862;-75
2024/03/26 00:58:10;;;;;;;9.65;6.57;;;;;;;0.05;72.13;93067.56;521769;28;840;-75
2024/03/26 00:58:25;;;;;;;10.07;6.37;;;;;;;0.07;72.09;93067.06;521805;28;804;-75
2024/03/26 00:58:41;;;;;;;10.77;6.57;;;;;;;0.08;72.03;93068.56;521854;28;796;-75
2024/03/26 00:58:56;;;;;;;8.30;6.13;;;;;;;0.10;72.12;93066.09;521741;28;887;-75
2024/03/26 00:59:12;;;;;;;8.63;6.35;;;;;;;0.09;71.96;93064.63;521752;28;846;-75
2024/03/26 00:59:27;;;;;;;9.77;6.73;;;;;;;0.11;72.00;93062.88;521759;28;761;-75
2024/03/26 00:59:43;;;;;;;9.93;6.90;;;;;;;0.11;71.87;93067.59;521744;28;788;-75
2024/03/26 00:59:58;;;;;;;9.38;6.47;;;;;;;0.13;71.89;93062.41;521745;28;1049;-75
2024/03/26 01:00:14;;;;;;;9.03;6.60;;;;;;;0.14;72.06;93063.88;521752;28;752;-75
2024/03/26 01:00:29;;;;;;;11.25;7.28;;;;;;;0.15;71.82;93068.84;521516;28;816;-75
2024/03/26 01:00:45;;;;;;;9.98;6.68;;;;;;;-0.02;71.84;93041.63;521647;28;963;-75
2024/03/26 01:01:06;;;;;;;7.63;6.37;;;;;;;0.17;71.86;93065.63;521598;28;838;-75
2024/03/26 01:01:22;;;;;;;8.57;6.60;;;;;;;0.17;71.59;93065.63;521608;28;970;-75
2024/03/26 01:01:37;;;;;;;9.20;6.97;;;;;;;0.17;71.69;93068.34;521600;28;748;-75
2024/03/26 01:01:53;;;;;;;9.38;6.70;;;;;;;0.18;71.68;93069.81;521469;28;891;-75
2024/03/26 01:02:08;;;;;;;9.00;6.80;;;;;;;0.17;71.42;93066.38;521531;28;834;-75
2024/03/26 01:02:23;;;;;;;8.75;7.07;;;;;;;0.18;71.69;93072.50;521671;28;928;-75
2024/03/26 01:02:39;;;;;;;10.73;7.30;;;;;;;0.11;71.12;93056.72;521608;28;752;-75
2024/03/26 01:02:54;;;;;;;11.63;7.37;;;;;;;0.19;71.45;93071.28;521610;28;862;-75
2024/03/26 01:03:10;;;;;;;9.48;6.90;;;;;;;0.18;71.25;93062.41;521587;28;891;-75
2024/03/26 01:03:25;;;;;;;10.03;7.67;;;;;;;0.19;71.40;93060.44;521568;28;832;-75
2024/03/26 01:03:41;;;;;;;12.40;8.95;;;;;;;0.18;71.24;93065.13;521616;28;1042;-75
2024/03/26 01:03:56;;;;;;;13.03;8.90;;;;;;;0.19;71.42;93068.59;521500;28;1918;-75
2024/03/26 01:04:12;;;;;;;13.40;8.53;;;;;;;0.19;71.37;93063.16;521637;28;807;-75
2024/03/26 01:04:27;;;;;;;11.98;8.23;;;;;;;0.20;71.46;93064.63;521593;28;780;-75
2024/03/26 01:04:43;;;;;;;11.80;8.25;;;;;;;0.20;71.37;93065.38;521553;28;808;-75
2024/03/26 01:04:58;;;;;;;13.63;8.43;;;;;;;0.18;71.61;93061.66;521645;28;769;-74
2024/03/26 01:05:13;;;;;;;12.77;8.00;;;;;;;0.15;71.74;93062.66;521342;28;2455;-75
2024/03/26 01:05:29;;;;;;;11.70;7.85;;;;;;;0.12;71.74;93066.34;521418;28;939;-74
2024/03/26 01:05:54;;;;;;;11.13;8.00;;;;;;;0.10;71.93;93069.56;521498;28;1125;-75
2024/03/26 01:06:10;;;;;;;10.93;7.53;;;;;;;0.10;71.64;93066.09;521321;28;911;-74
2024/03/26 01:06:25;;;;;;;10.27;7.17;;;;;;;0.10;72.00;93069.56;521409;28;943;-74
2024/03/26 01:06:41;;;;;;;9.93;7.38;;;;;;;0.09;71.95;93072.75;521508;28;854;-74
2024/03/26 01:06:56;;;;;;;10.57;8.30;;;;;;;0.07;72.35;93069.78;521384;28;856;-74
2024/03/26 01:07:11;;;;;;;10.52;8.05;;;;;;;0.06;71.99;93065.59;521562;28;764;-74
2024/03/26 01:07:27;;;;;;;11.73;8.30;;;;;;;0.05;72.36;93069.53;521521;28;772;-75
2024/03/26 01:07:42;;;;;;;12.07;8.27;;;;;;;0.04;72.28;93066.09;521575;28;795;-75
2024/03/26 01:07:58;;;;;;;11.05;7.88;;;;;;;0.04;72.29;93074.22;521560;28;891;-74
2024/03/26 01:08:13;;;;;;;11.90;8.33;;;;;;;0.05;72.55;93069.53;521577;28;799;-74
2024/03/26 01:08:29;;;;;;;12.18;8.55;;;;;;;0.05;72.50;93064.84;521594;28;898;-74
2024/03/26 01:08:44;;;;;;;11.60;8.27;;;;;;;0.07;72.78;93075.94;521442;28;858;-75
2024/03/26 01:09:00;;;;;;;11.88;7.68;;;;;;;0.08;72.56;93071.28;521687;28;863;-74
2024/03/26 01:09:15;;;;;;;11.47;7.50;;;;;;;0.08;72.43;93074.72;521567;28;799;-74
2024/03/26 01:09:30;;;;;;;10.38;7.55;;;;;;;0.07;72.42;93067.81;521597;28;896;-74
2024/03/26 01:09:46;;;;;;;10.60;7.80;;;;;;;0.07;72.40;93073.25;521590;28;772;-75
2024/03/26 01:10:01;;;;;;;11.37;8.33;;;;;;;0.06;72.59;93071.03;521684;28;820;-74
2024/03/26 01:10:17;;;;;;;12.53;8.73;;;;;;;0.06;72.52;93068.31;521425;28;757;-75
2024/03/26 01:10:32;;;;;;;11.00;8.30;;;;;;;0.04;72.60;93073.50;521627;28;832;-74
2024/03/26 01:10:48;;;;;;;9.95;8.02;;;;;;;0.03;72.47;93064.59;521566;28;810;-75
2024/03/26 01:11:03;;;;;;;11.27;8.13;;;;;;;0.02;72.54;93070.53;521611;28;761;-74
2024/03/26 01:11:19;;;;;;;12.55;8.52;;;;;;;0.00;72.75;93066.31;521579;28;816;-75
2024/03/26 01:11:34;;;;;;;12.17;8.33;;;;;;;0.04;72.74;93068.06;521553;28;832;-74
2024/03/26 01:11:49;;;;;;;11.00;7.60;;;;;;;0.04;72.45;93074.22;521621;28;903;-75
2024/03/26 01:12:05;;;;;;;10.60;7.63;;;;;;;0.06;72.82;93068.31;521613;28;1157;-74
2024/03/26 01:12:20;;;;;;;11.13;7.47;;;;;;;0.05;72.83;93070.28;521661;28;816;-75
2024/03/26 01:12:36;;;;;;;12.00;8.10;;;;;;;0.02;72.79;93067.81;521607;28;880;-74
2024/03/26 01:12:51;;;;;;;11.47;8.23;;;;;;;-0.08;73.10;93067.28;521602;28;780;-75
2024/03/26 01:13:06;;;;;;;10.65;7.75;;;;;;;-0.16;73.38;93063.56;521563;28;852;-74
2024/03/26 01:13:22;;;;;;;10.17;7.57;;;;;;;-0.21;73.71;93069.72;521710;28;772;-75
2024/03/26 01:13:38;;;;;;;10.10;7.57;;;;;;;-0.27;73.91;93067.00;521680;28;749;-75
2024/03/26 01:13:53;;;;;;;10.53;8.10;;;;;;;-0.34;73.92;93070.16;521569;28;823;-75
2024/03/26 01:14:08;;;;;;;10.77;8.13;;;;;;;-0.40;73.84;93066.69;521684;28;1482;-74
2024/03/26 01:14:24;;;;;;;12.43;8.07;;;;;;;-0.42;74.43;93071.88;521607;28;776;-74
2024/03/26 01:14:39;;;;;;;11.55;7.75;;;;;;;-0.44;74.29;93066.19;521644;28;907;-75
2024/03/26 01:14:55;;;;;;;9.43;7.23;;;;;;;-0.49;74.33;93068.88;521640;28;828;-75
2024/03/26 01:15:10;;;;;;;9.32;7.00;;;;;;;-0.52;74.62;93073.28;521688;28;799;-74
2024/03/26 01:15:26;;;;;;;9.77;7.50;;;;;;;-0.52;74.81;93067.16;521545;28;890;-75
2024/03/26 01:15:41;;;;;;;9.47;7.30;;;;;;;-0.84;74.61;93029.28;521637;28;808;-74
2024/03/26 01:15:57;;;;;;;9.38;7.13;;;;;;;-0.58;74.94;93069.81;521695;28;922;-75